Time;durP1;ratioP1;P1;durP2;ratioP2;P2;SDS_P1;SDS_P2;PMS_P1;PMS_P2;Temp;Humidity;BMP_temperature;BMP_pressure;BME280_temperature;BME280_humidity;BME280_pressure;Samples;Min_cycle;Max_cycle;Signal;HPM_P1;HPM_P2
2023/04/23 00:03:51;;;;;;;9.35;4.10;;;;;;;-147.53;100.00;57128.34;10331219;28;20553;-87
2023/04/23 00:08:54;;;;;;;11.82;5.60;;;;;;;-147.53;100.00;57128.34;10350728;28;20082;-87
2023/04/23 00:13:56;;;;;;;10.20;5.78;;;;;;;-147.53;100.00;57128.34;10350651;28;20065;-86
2023/04/23 00:18:59;;;;;;;9.50;4.65;;;;;;;-147.53;100.00;57128.34;10313149;28;20073;-88
2023/04/23 00:24:01;;;;;;;12.00;5.63;;;;;;;-147.53;100.00;57128.34;10310758;28;20050;-87
2023/04/23 00:29:24;;;;;;;11.40;5.43;;;;;;;-147.53;100.00;57128.34;10325236;28;20066;-86
2023/04/23 00:34:26;;;;;;;10.82;5.03;;;;;;;-147.53;100.00;57128.34;10338624;28;20050;-87
2023/04/23 00:39:28;;;;;;;10.65;5.50;;;;;;;-147.53;100.00;57128.34;10325119;28;20122;-86
2023/04/23 00:44:30;;;;;;;14.65;6.22;;;;;;;-147.53;100.00;57128.34;10340924;28;20054;-88
2023/04/23 00:49:36;;;;;;;9.82;4.50;;;;;;;-147.53;100.00;57128.34;10321872;28;20053;-86
2023/04/23 00:55:33;;;;;;;8.95;4.50;;;;;;;-147.53;100.00;57128.34;10321607;28;20054;-84
2023/04/23 01:08:14;;;;;;;13.45;5.13;;;;;;;-147.53;100.00;57128.34;10178314;28;20063;-86
2023/04/23 01:13:49;;;;;;;11.48;4.55;;;;;;;-147.53;100.00;57128.34;10250172;29;20587;-85
2023/04/23 01:19:33;;;;;;;11.43;5.22;;;;;;;-147.53;100.00;57128.34;10249779;28;20080;-89
2023/04/23 01:25:25;;;;;;;8.68;4.22;;;;;;;-147.53;100.00;57128.34;10237698;29;20047;-86
2023/04/23 01:31:46;;;;;;;10.80;3.77;;;;;;;-147.53;100.00;57128.34;10224953;28;20681;-84
2023/04/23 01:38:11;;;;;;;7.35;3.42;;;;;;;-147.53;100.00;57128.34;10216843;29;20039;-88
2023/04/23 01:43:49;;;;;;;6.63;3.80;;;;;;;-147.53;100.00;57128.34;10230270;29;20083;-85
2023/04/23 01:48:59;;;;;;;9.55;3.65;;;;;;;-147.53;100.00;57128.34;10231350;28;20619;-85
2023/04/23 01:54:10;;;;;;;8.77;4.35;;;;;;;-147.53;100.00;57128.34;10227451;29;20368;-87
2023/04/23 01:59:16;;;;;;;7.72;3.42;;;;;;;-147.53;100.00;57128.34;10313281;28;20471;-87
2023/04/23 02:04:23;;;;;;;8.68;4.07;;;;;;;-147.53;100.00;57128.34;10303104;28;20051;-90
2023/04/23 02:09:25;;;;;;;8.05;3.60;;;;;;;-147.53;100.00;57128.34;10303264;28;20108;-86
2023/04/23 02:14:29;;;;;;;8.30;3.70;;;;;;;-147.53;100.00;57128.34;10310937;28;20050;-85
2023/04/23 02:19:34;;;;;;;8.85;4.32;;;;;;;-147.53;100.00;57128.34;10312100;28;20620;-87
2023/04/23 02:24:41;;;;;;;10.60;4.20;;;;;;;-147.53;100.00;57128.34;10312396;28;20482;-86
2023/04/23 02:29:47;;;;;;;8.43;3.55;;;;;;;-147.53;100.00;57128.34;10308648;28;20046;-85
2023/04/23 02:34:58;;;;;;;8.27;3.97;;;;;;;-147.53;100.00;57128.34;10311235;28;20178;-85
2023/04/23 02:40:04;;;;;;;8.73;4.32;;;;;;;-147.53;100.00;57128.34;10312315;28;20133;-85
2023/04/23 02:45:10;;;;;;;8.13;4.03;;;;;;;-147.53;100.00;57128.34;10307121;28;20054;-85
2023/04/23 02:50:15;;;;;;;7.88;3.60;;;;;;;-147.53;100.00;57128.34;10296012;28;20094;-85
2023/04/23 02:55:52;;;;;;;7.18;3.35;;;;;;;-147.53;100.00;57128.34;10299109;28;20059;-87
2023/04/23 03:01:27;;;;;;;9.00;3.45;;;;;;;-147.53;100.00;57128.34;10300367;28;20054;-88
2023/04/23 03:20:06;;;;;;;7.22;3.13;;;;;;;-147.53;100.00;57128.34;10372491;28;20061;-85
2023/04/23 03:25:09;;;;;;;7.00;3.38;;;;;;;-147.53;100.00;57128.34;10352673;28;20061;-85
2023/04/23 03:30:16;;;;;;;9.80;5.15;;;;;;;-147.53;100.00;57128.34;10359146;28;20562;-84
2023/04/23 03:54:56;;;;;;;;;;;;;;;;;;;;;
2023/04/23 04:00:46;;;;;;;9.77;5.10;;;;;;;-147.53;100.00;57128.34;10474809;28;20064;-86
2023/04/23 04:05:50;;;;;;;10.35;5.13;;;;;;;-147.53;100.00;57128.34;10484055;28;20052;-86
2023/04/23 04:10:55;;;;;;;9.25;4.70;;;;;;;-147.53;100.00;57128.34;10465799;28;20056;-85
2023/04/23 04:36:37;;;;;;;9.07;4.45;;;;;;;-147.53;100.00;57128.34;10360999;28;20038;-84
2023/04/23 04:42:24;;;;;;;10.10;4.55;;;;;;;-147.53;100.00;57128.34;10353752;28;20049;-86
2023/04/23 04:47:28;;;;;;;9.70;5.07;;;;;;;-147.53;100.00;57128.34;10353926;28;20169;-84
2023/04/23 04:52:31;;;;;;;9.80;5.07;;;;;;;-147.53;100.00;57128.34;10359874;28;20440;-86
2023/04/23 04:57:36;;;;;;;10.50;4.82;;;;;;;-147.53;100.00;57128.34;10320562;28;20159;-84
2023/04/23 05:02:43;;;;;;;11.23;6.53;;;;;;;-147.53;100.00;57128.34;10341727;28;20127;-88
2023/04/23 05:07:54;;;;;;;11.70;3.85;;;;;;;-147.53;100.00;57128.34;10466925;28;20052;-86
2023/04/23 05:12:57;;;;;;;10.57;4.57;;;;;;;-147.53;100.00;57128.34;10480924;28;20439;-84
2023/04/23 05:18:03;;;;;;;12.45;5.38;;;;;;;-147.53;100.00;57128.34;10458669;28;20052;-85
2023/04/23 05:23:06;;;;;;;9.93;4.28;;;;;;;-147.53;100.00;57128.34;10470194;28;20147;-84
2023/04/23 05:28:11;;;;;;;9.25;4.30;;;;;;;-147.53;100.00;57128.34;10470135;28;20086;-85
2023/04/23 05:33:27;;;;;;;13.38;5.47;;;;;;;-147.53;100.00;57128.34;10474004;28;20051;-83
2023/04/23 05:38:37;;;;;;;;;;;;;;;-147.53;100.00;57128.34;10485848;28;20111;-88
2023/04/23 05:43:41;;;;;;;12.88;4.60;;;;;;;-147.53;100.00;57128.34;10504739;28;19927;-85
2023/04/23 05:49:04;;;;;;;9.90;5.53;;;;;;;-147.53;100.00;57128.34;10451603;28;20132;-86
2023/04/23 05:54:46;;;;;;;10.98;5.10;;;;;;;-147.53;100.00;57128.34;10376696;28;20068;-86
2023/04/23 06:00:11;;;;;;;13.73;6.68;;;;;;;-147.53;100.00;57128.34;10399015;28;20061;-85
2023/04/23 06:13:20;;;;;;;12.43;6.03;;;;;;;-147.53;100.00;57128.34;10139727;28;20083;-85
2023/04/23 06:19:30;;;;;;;15.32;6.75;;;;;;;-147.53;100.00;57128.34;10393191;28;20520;-85
2023/04/23 07:09:56;;;;;;;28.13;13.25;;;;;;;-147.53;100.00;57128.34;10348879;23;20069;-85
2023/04/23 07:15:09;;;;;;;31.85;14.35;;;;;;;-147.53;100.00;57128.34;10056589;29;20065;-84
2023/04/23 07:20:21;;;;;;;34.28;14.00;;;;;;;-147.53;100.00;57128.34;10069707;29;20052;-84
2023/04/23 07:25:26;;;;;;;28.70;14.70;;;;;;;-147.53;100.00;57128.34;10055486;29;20173;-84
2023/04/23 07:36:22;;;;;;;30.55;13.55;;;;;;;-147.53;100.00;57128.34;10000381;29;20073;-85
2023/04/23 07:41:32;;;;;;;33.78;13.27;;;;;;;-147.53;100.00;57128.34;9972258;29;20187;-85
2023/04/23 07:46:37;;;;;;;30.90;14.00;;;;;;;-147.53;100.00;57128.34;9968842;29;20559;-83
2023/04/23 07:51:39;;;;;;;31.33;14.32;;;;;;;-147.53;100.00;57128.34;9977201;29;20122;-83
2023/04/23 07:56:44;;;;;;;30.40;12.57;;;;;;;-147.53;100.00;57128.34;9968146;29;20054;-85
2023/04/23 08:01:45;;;;;;;32.67;12.77;;;;;;;-147.53;100.00;57128.34;9967827;29;20497;-85
2023/04/23 08:06:47;;;;;;;27.48;10.93;;;;;;;-147.53;100.00;57128.34;9971324;29;20069;-83
2023/04/23 08:11:49;;;;;;;20.73;10.45;;;;;;;-147.53;100.00;57128.34;9971497;29;20054;-84
2023/04/23 08:16:51;;;;;;;23.23;10.38;;;;;;;-147.53;100.00;57128.34;9980894;29;20062;-84
2023/04/23 08:21:58;;;;;;;21.38;9.73;;;;;;;-147.53;100.00;57128.34;9989670;29;20055;-84
2023/04/23 08:27:02;;;;;;;20.27;9.20;;;;;;;-147.53;100.00;57128.34;9988371;29;20137;-84
2023/04/23 08:32:06;;;;;;;21.45;8.75;;;;;;;-147.53;100.00;57128.34;9971473;29;20561;-85
2023/04/23 08:37:12;;;;;;;17.45;7.93;;;;;;;-147.53;100.00;57128.34;9971679;29;20057;-84
2023/04/23 08:42:37;;;;;;;14.82;7.07;;;;;;;-147.53;100.00;57128.34;9960899;29;20046;-83
2023/04/23 08:47:44;;;;;;;19.48;8.27;;;;;;;-147.53;100.00;57128.34;9977021;29;20070;-85
2023/04/23 08:52:50;;;;;;;14.77;6.80;;;;;;;-147.53;100.00;57128.34;9963648;29;20047;-85
2023/04/23 08:57:53;;;;;;;15.63;6.18;;;;;;;-147.53;100.00;57128.34;9956820;29;20081;-85
2023/04/23 09:02:55;;;;;;;16.00;7.10;;;;;;;-147.53;100.00;57128.34;9973601;29;20608;-86
2023/04/23 09:08:01;;;;;;;16.98;6.95;;;;;;;-147.53;100.00;57128.34;9982799;29;20046;-86
2023/04/23 09:13:06;;;;;;;13.32;6.47;;;;;;;-147.53;100.00;57128.34;9975844;29;20059;-81
2023/04/23 09:18:08;;;;;;;12.52;5.90;;;;;;;-147.53;100.00;57128.34;9980582;29;20050;-83
2023/04/23 09:23:13;;;;;;;10.60;5.18;;;;;;;-147.53;100.00;57128.34;9966254;29;20085;-84
2023/04/23 09:28:15;;;;;;;11.40;5.38;;;;;;;-147.53;100.00;57128.34;9976511;29;20058;-83
2023/04/23 09:33:17;;;;;;;12.63;5.53;;;;;;;-147.53;100.00;57128.34;9968647;29;20042;-82
2023/04/23 09:38:19;;;;;;;10.10;4.97;;;;;;;-147.53;100.00;57128.34;9973634;29;20149;-85
2023/04/23 09:43:21;;;;;;;11.82;5.72;;;;;;;-147.53;100.00;57128.34;9966406;29;20141;-85
2023/04/23 09:48:22;;;;;;;10.82;5.50;;;;;;;-147.53;100.00;57128.34;9977409;29;20109;-83
2023/04/23 09:53:25;;;;;;;12.23;5.68;;;;;;;-147.53;100.00;57128.34;9968426;29;20121;-82
2023/04/23 09:58:27;;;;;;;12.48;5.82;;;;;;;-147.53;100.00;57128.34;9983898;29;20058;-84
2023/04/23 10:03:29;;;;;;;11.45;5.82;;;;;;;-147.53;100.00;57128.34;9983214;29;20488;-81
2023/04/23 10:08:31;;;;;;;10.40;5.15;;;;;;;-147.53;100.00;57128.34;9981105;29;20046;-82
2023/04/23 10:13:36;;;;;;;13.73;5.88;;;;;;;-147.53;100.00;57128.34;9968132;29;20047;-82
2023/04/23 10:18:38;;;;;;;13.00;6.97;;;;;;;-147.53;100.00;57128.34;9953956;29;20134;-82
2023/04/23 10:23:43;;;;;;;14.25;6.18;;;;;;;-147.53;100.00;57128.34;9962520;29;20643;-82
2023/04/23 10:28:47;;;;;;;13.35;6.63;;;;;;;-147.53;100.00;57128.34;9960350;29;20061;-82
2023/04/23 10:33:50;;;;;;;14.70;6.60;;;;;;;-147.53;100.00;57128.34;9964054;29;20057;-82
2023/04/23 10:39:03;;;;;;;13.30;5.78;;;;;;;-147.53;100.00;57128.34;9979545;29;20054;-82
2023/04/23 10:44:06;;;;;;;14.80;7.13;;;;;;;-147.53;100.00;57128.34;9996204;29;20062;-82
2023/04/23 10:49:15;;;;;;;13.35;5.75;;;;;;;-147.53;100.00;57128.34;9991408;29;20480;-82
2023/04/23 10:54:18;;;;;;;13.35;6.03;;;;;;;-147.53;100.00;57128.34;9989224;29;20053;-83
2023/04/23 10:59:21;;;;;;;15.80;6.07;;;;;;;-147.53;100.00;57128.34;9973039;29;20503;-82
2023/04/23 11:04:28;;;;;;;12.75;6.47;;;;;;;-147.53;100.00;57128.34;9990219;29;20049;-82
2023/04/23 11:09:47;;;;;;;16.58;6.57;;;;;;;-147.53;100.00;57128.34;9987960;29;20042;-82
2023/04/23 11:14:51;;;;;;;12.93;6.43;;;;;;;-147.53;100.00;57128.34;9987150;29;20054;-82
2023/04/23 11:20:12;;;;;;;12.18;5.15;;;;;;;-147.53;100.00;57128.34;9988693;29;20485;-82
2023/04/23 11:25:19;;;;;;;10.43;4.55;;;;;;;-147.53;100.00;57128.34;9986817;29;20065;-81
2023/04/23 11:30:23;;;;;;;10.05;4.72;;;;;;;-147.53;100.00;57128.34;9992043;29;20617;-82
2023/04/23 11:35:31;;;;;;;9.02;3.90;;;;;;;-147.53;100.00;57128.34;9991017;29;20054;-82
2023/04/23 11:40:33;;;;;;;7.63;3.40;;;;;;;-147.53;100.00;57128.34;9991482;29;20062;-82
2023/04/23 11:45:35;;;;;;;10.13;4.43;;;;;;;-147.53;100.00;57128.34;9990752;29;20053;-81
2023/04/23 11:50:37;;;;;;;46.22;19.60;;;;;;;-147.53;100.00;57128.34;9988611;29;20055;-82
2023/04/23 11:55:42;;;;;;;12.57;4.60;;;;;;;-147.53;100.00;57128.34;9986495;29;20050;-83
2023/04/23 12:00:44;;;;;;;10.93;4.97;;;;;;;-147.53;100.00;57128.34;9985135;29;20078;-81
2023/04/23 12:05:46;;;;;;;7.82;3.53;;;;;;;-147.53;100.00;57128.34;9985246;29;20059;-82
2023/04/23 12:10:53;;;;;;;6.55;3.10;;;;;;;-147.53;100.00;57128.34;9985573;29;20050;-82
2023/04/23 12:15:57;;;;;;;8.63;3.45;;;;;;;-147.53;100.00;57128.34;9982886;29;20066;-82
2023/04/23 12:21:10;;;;;;;6.70;3.00;;;;;;;-147.53;100.00;57128.34;9977782;29;20062;-82
2023/04/23 12:26:16;;;;;;;5.90;3.00;;;;;;;-147.53;100.00;57128.34;9984282;29;20062;-83
2023/04/23 12:31:26;;;;;;;6.28;2.80;;;;;;;-147.53;100.00;57128.34;9984448;29;20138;-82
2023/04/23 12:36:30;;;;;;;4.45;2.22;;;;;;;-147.53;100.00;57128.34;9982091;29;20058;-82
2023/04/23 12:41:31;;;;;;;5.50;2.90;;;;;;;-147.53;100.00;57128.34;9985389;29;20074;-81
2023/04/23 12:46:34;;;;;;;7.22;2.83;;;;;;;-147.53;100.00;57128.34;9989274;29;20055;-82
2023/04/23 12:51:35;;;;;;;5.70;2.60;;;;;;;-147.53;100.00;57128.34;9978298;29;20047;-82
2023/04/23 12:56:37;;;;;;;3.85;1.98;;;;;;;-147.53;100.00;57128.34;9993230;29;20069;-82
2023/04/23 13:01:39;;;;;;;6.00;2.90;;;;;;;-147.53;100.00;57128.34;9983043;29;20054;-82
2023/04/23 13:06:41;;;;;;;4.15;2.20;;;;;;;-147.53;100.00;57128.34;9984100;29;20054;-81
2023/04/23 13:11:43;;;;;;;5.40;2.25;;;;;;;-147.53;100.00;57128.34;9987885;29;20114;-82
2023/04/23 13:16:44;;;;;;;5.07;1.77;;;;;;;-147.53;100.00;57128.34;9984244;29;20259;-82
2023/04/23 13:21:46;;;;;;;6.40;2.90;;;;;;;-147.53;100.00;57128.34;9986132;29;20073;-82
2023/04/23 13:26:48;;;;;;;4.63;2.42;;;;;;;-147.53;100.00;57128.34;9982183;29;20463;-82
2023/04/23 13:31:50;;;;;;;5.53;1.85;;;;;;;-147.53;100.00;57128.34;9981611;29;20137;-81
2023/04/23 13:36:51;;;;;;;5.45;1.92;;;;;;;-147.53;100.00;57128.34;9980699;29;20068;-83
2023/04/23 13:41:53;;;;;;;4.60;1.77;;;;;;;-147.53;100.00;57128.34;9963725;29;20220;-81
2023/04/23 13:47:00;;;;;;;3.53;1.70;;;;;;;-147.53;100.00;57128.34;9979349;29;20055;-82
2023/04/23 13:52:05;;;;;;;2.95;1.10;;;;;;;-147.53;100.00;57128.34;9981064;29;20054;-81
2023/04/23 13:57:07;;;;;;;3.55;1.58;;;;;;;-147.53;100.00;57128.34;9980033;29;20051;-82
2023/04/23 14:02:09;;;;;;;3.38;1.45;;;;;;;-147.53;100.00;57128.34;9979222;29;20485;-81
2023/04/23 14:07:10;;;;;;;3.50;1.08;;;;;;;-147.53;100.00;57128.34;9978732;29;20138;-81
2023/04/23 14:12:12;;;;;;;3.30;1.70;;;;;;;-147.53;100.00;57128.34;9978914;29;20058;-82
2023/04/23 14:17:13;;;;;;;4.88;1.45;;;;;;;-147.53;100.00;57128.34;9980252;29;20160;-81
2023/04/23 14:22:15;;;;;;;6.53;3.28;;;;;;;-147.53;100.00;57128.34;9979511;29;20127;-82
2023/04/23 14:27:16;;;;;;;2.90;1.00;;;;;;;-147.53;100.00;57128.34;9979135;29;20058;-81
2023/04/23 14:32:18;;;;;;;1.13;0.77;;;;;;;-147.53;100.00;57128.34;9979732;29;20059;-82
2023/04/23 14:37:20;;;;;;;1.95;1.23;;;;;;;-147.53;100.00;57128.34;9979508;29;20473;-82
2023/04/23 14:42:21;;;;;;;2.17;1.02;;;;;;;-147.53;100.00;57128.34;9978417;29;20058;-81
2023/04/23 14:47:23;;;;;;;3.10;1.05;;;;;;;-147.53;100.00;57128.34;9980875;29;20058;-81
2023/04/23 14:52:25;;;;;;;1.80;0.85;;;;;;;-147.53;100.00;57128.34;9963766;29;20413;-84
2023/04/23 14:57:27;;;;;;;2.33;1.25;;;;;;;-147.53;100.00;57128.34;9980099;29;20051;-82
2023/04/23 15:02:29;;;;;;;4.47;1.10;;;;;;;-147.53;100.00;57128.34;9987930;29;20054;-83
2023/04/23 15:07:32;;;;;;;5.40;1.20;;;;;;;-147.53;100.00;57128.34;9986711;29;20058;-82
2023/04/23 15:12:40;;;;;;;1.27;0.80;;;;;;;-147.53;100.00;57128.34;9984427;29;20050;-82
2023/04/23 15:17:42;;;;;;;2.42;0.70;;;;;;;-147.53;100.00;57128.34;9980148;29;20058;-81
2023/04/23 15:22:46;;;;;;;1.58;0.90;;;;;;;-147.53;100.00;57128.34;9972473;29;20141;-77
2023/04/23 15:27:50;;;;;;;1.73;0.60;;;;;;;-147.53;100.00;57128.34;9976946;29;20057;-79
2023/04/23 15:32:54;;;;;;;1.77;0.75;;;;;;;-147.53;100.00;57128.34;9981051;29;20062;-79
2023/04/23 15:37:56;;;;;;;1.45;0.77;;;;;;;-147.53;100.00;57128.34;9978310;29;20061;-82
2023/04/23 15:42:58;;;;;;;2.10;0.90;;;;;;;-147.53;100.00;57128.34;9984380;29;20079;-83
2023/04/23 15:48:00;;;;;;;2.35;0.90;;;;;;;-147.53;100.00;57128.34;9967725;29;20066;-78
2023/04/23 15:53:02;;;;;;;0.93;0.70;;;;;;;-147.53;100.00;57128.34;9976835;29;20099;-79
2023/04/23 15:58:04;;;;;;;0.77;0.63;;;;;;;-147.53;100.00;57128.34;9978456;29;20055;-80
2023/04/23 16:03:09;;;;;;;2.92;0.90;;;;;;;-147.53;100.00;57128.34;9973083;29;20066;-84
2023/04/23 16:08:11;;;;;;;1.45;0.80;;;;;;;-147.53;100.00;57128.34;9970503;29;20103;-83
2023/04/23 16:13:13;;;;;;;3.13;1.10;;;;;;;-147.53;100.00;57128.34;9978779;29;20065;-80
2023/04/23 16:18:14;;;;;;;3.90;1.10;;;;;;;-147.53;100.00;57128.34;9976468;29;20427;-84
2023/04/23 16:23:16;;;;;;;2.30;1.27;;;;;;;-147.53;100.00;57128.34;9969199;29;20055;-83
2023/04/23 16:28:18;;;;;;;2.17;1.20;;;;;;;-147.53;100.00;57128.34;9969934;29;20379;-83
2023/04/23 16:33:20;;;;;;;4.72;1.60;;;;;;;-147.53;100.00;57128.34;9967558;29;20536;-83
2023/04/23 16:38:22;;;;;;;2.15;1.27;;;;;;;-147.53;100.00;57128.34;9968085;29;20055;-84
2023/04/23 16:43:23;;;;;;;4.20;1.55;;;;;;;-147.53;100.00;57128.34;9968161;29;20046;-83
2023/04/23 16:55:21;;;;;;;2.72;1.42;;;;;;;-147.53;100.00;57128.34;9969846;29;20058;-84
2023/04/23 17:00:38;;;;;;;2.90;0.90;;;;;;;-147.53;100.00;57128.34;9974953;29;20061;-86
2023/04/23 17:05:48;;;;;;;0.95;0.77;;;;;;;-147.53;100.00;57128.34;9968376;29;20074;-84
2023/04/23 17:10:56;;;;;;;0.75;0.50;;;;;;;-147.53;100.00;57128.34;9972277;29;20058;-84
2023/04/23 17:16:25;;;;;;;1.00;0.63;;;;;;;-147.53;100.00;57128.34;9967130;29;20488;-85
2023/04/23 17:28:30;;;;;;;0.82;0.63;;;;;;;-147.53;100.00;57128.34;9832414;30;20055;-86
2023/04/23 17:34:40;;;;;;;1.85;0.95;;;;;;;-147.53;100.00;57128.34;9819451;30;20211;-86
2023/04/23 17:40:41;;;;;;;1.95;0.80;;;;;;;-147.53;100.00;57128.34;9849051;29;20052;-86
2023/04/23 17:46:29;;;;;;;1.05;0.80;;;;;;;-147.53;100.00;57128.34;9823263;30;20055;-86
2023/04/23 17:52:22;;;;;;;0.88;0.63;;;;;;;-147.53;100.00;57128.34;9765279;30;20053;-87
2023/04/23 17:58:15;;;;;;;0.70;0.70;;;;;;;-147.53;100.00;57128.34;9775470;30;20198;-86
2023/04/23 18:35:58;;;;;;;1.90;1.00;;;;;;;-147.53;100.00;57128.34;9824161;30;20062;-88
2023/04/23 18:41:46;;;;;;;;;;;;;;;;;;;;;
2023/04/23 18:54:31;;;;;;;0.95;0.80;;;;;;;-147.53;100.00;57128.34;9761592;30;20585;-87
2023/04/23 19:00:55;;;;;;;1.48;0.90;;;;;;;-147.53;100.00;57128.34;9927060;29;20058;-86
2023/04/23 19:32:29;;;;;;;2.53;0.63;;;;;;;-147.53;100.00;57128.34;10103611;29;20154;-87
2023/04/23 19:37:57;;;;;;;0.63;0.63;;;;;;;-147.53;100.00;57128.34;10086012;29;20059;-85
2023/04/23 19:43:04;;;;;;;0.90;0.68;;;;;;;-147.53;100.00;57128.34;10065568;29;20131;-84
2023/04/23 19:48:06;;;;;;;4.40;1.00;;;;;;;-147.53;100.00;57128.34;10099581;29;20084;-84
2023/04/23 19:53:08;;;;;;;1.08;0.80;;;;;;;-147.53;100.00;57128.34;10114683;29;20053;-83
2023/04/23 19:58:10;;;;;;;1.35;0.80;;;;;;;-147.53;100.00;57128.34;10112315;29;20053;-84
2023/04/23 20:03:16;;;;;;;1.48;0.90;;;;;;;-147.53;100.00;57128.34;10071526;29;20101;-86
2023/04/23 20:08:28;;;;;;;1.52;0.63;;;;;;;-147.53;100.00;57128.34;10074832;29;20084;-86
2023/04/23 20:13:33;;;;;;;1.55;0.70;;;;;;;-147.53;100.00;57128.34;10070863;29;20075;-85
2023/04/23 20:18:38;;;;;;;1.55;0.70;;;;;;;-147.53;100.00;57128.34;10094109;29;20128;-85
2023/04/23 20:23:41;;;;;;;1.88;0.93;;;;;;;-147.53;100.00;57128.34;10082763;29;20632;-85
2023/04/23 20:28:46;;;;;;;0.95;0.88;;;;;;;-147.53;100.00;57128.34;10099170;29;20061;-86
2023/04/23 20:33:48;;;;;;;3.80;1.67;;;;;;;-147.53;100.00;57128.34;10072845;29;20128;-85
2023/04/23 20:38:53;;;;;;;7.80;1.70;;;;;;;-147.53;100.00;57128.34;10100195;29;20435;-85
2023/04/23 20:43:58;;;;;;;2.13;0.95;;;;;;;-147.53;100.00;57128.34;10102829;29;20069;-85
2023/04/23 20:49:02;;;;;;;2.42;0.90;;;;;;;-147.53;100.00;57128.34;10110250;29;20522;-85
2023/04/23 20:54:03;;;;;;;1.85;1.00;;;;;;;-147.53;100.00;57128.34;10104217;29;20163;-85
2023/04/23 20:59:05;;;;;;;1.67;0.88;;;;;;;-147.53;100.00;57128.34;10097374;29;20771;-84
2023/04/23 21:04:07;;;;;;;1.13;0.75;;;;;;;-147.53;100.00;57128.34;10112840;29;20183;-84
2023/04/23 21:09:10;;;;;;;1.80;1.10;;;;;;;-147.53;100.00;57128.34;10105980;29;20045;-85
2023/04/23 21:14:17;;;;;;;0.70;0.57;;;;;;;-147.53;100.00;57128.34;10090762;29;20140;-85
2023/04/23 21:19:24;;;;;;;3.83;1.48;;;;;;;-147.53;100.00;57128.34;10081726;29;20467;-85
2023/04/23 21:24:26;;;;;;;4.18;1.48;;;;;;;-147.53;100.00;57128.34;10085983;29;20044;-86
2023/04/23 21:29:28;;;;;;;1.80;0.95;;;;;;;-147.53;100.00;57128.34;10104306;29;20048;-85
2023/04/23 21:34:29;;;;;;;1.90;1.00;;;;;;;-147.53;100.00;57128.34;10103326;29;20135;-84
2023/04/23 21:39:31;;;;;;;1.63;0.90;;;;;;;-147.53;100.00;57128.34;10089900;29;20052;-84
2023/04/23 21:44:34;;;;;;;2.38;1.23;;;;;;;-147.53;100.00;57128.34;10102728;29;20117;-85
2023/04/23 21:49:36;;;;;;;1.67;1.20;;;;;;;-147.53;100.00;57128.34;10080815;29;20083;-84
2023/04/23 21:54:38;;;;;;;2.38;1.23;;;;;;;-147.53;100.00;57128.34;10088551;29;20053;-85
2023/04/23 21:59:43;;;;;;;3.40;1.60;;;;;;;-147.53;100.00;57128.34;10087069;29;20148;-85
2023/04/23 22:04:48;;;;;;;4.90;1.30;;;;;;;-147.53;100.00;57128.34;10101956;29;20056;-85
2023/04/23 22:09:56;;;;;;;1.85;1.05;;;;;;;-147.53;100.00;57128.34;10093325;29;20076;-85
2023/04/23 22:15:09;;;;;;;2.85;1.52;;;;;;;-147.53;100.00;57128.34;10086343;29;20040;-85
2023/04/23 22:20:17;;;;;;;2.83;1.52;;;;;;;-147.53;100.00;57128.34;10087475;29;20580;-85
2023/04/23 22:25:25;;;;;;;3.22;1.45;;;;;;;-147.53;100.00;57128.34;10078818;29;20252;-85
2023/04/23 22:30:30;;;;;;;2.47;1.23;;;;;;;-147.53;100.00;57128.34;10070543;29;20072;-85
2023/04/23 22:35:36;;;;;;;1.73;1.00;;;;;;;-147.53;100.00;57128.34;10077163;29;20049;-86
2023/04/23 22:40:38;;;;;;;1.83;1.10;;;;;;;-147.53;100.00;57128.34;10094104;29;20182;-86
2023/04/23 22:45:47;;;;;;;3.13;1.40;;;;;;;-147.53;100.00;57128.34;10086293;29;20056;-86
2023/04/23 22:51:05;;;;;;;3.33;1.70;;;;;;;-147.53;100.00;57128.34;10067525;29;20049;-85
2023/04/23 22:56:10;;;;;;;2.63;1.23;;;;;;;-147.53;100.00;57128.34;10077230;29;20049;-85
2023/04/23 23:01:13;;;;;;;2.72;1.45;;;;;;;-147.53;100.00;57128.34;10069283;29;20541;-86
2023/04/23 23:06:23;;;;;;;4.75;1.73;;;;;;;-147.53;100.00;57128.34;10084552;29;20405;-86
2023/04/23 23:11:28;;;;;;;3.45;1.60;;;;;;;-147.53;100.00;57128.34;10087100;29;20414;-86
2023/04/23 23:16:39;;;;;;;1.33;1.02;;;;;;;-147.53;100.00;57128.34;10076610;29;20065;-85
2023/04/23 23:21:41;;;;;;;2.72;1.30;;;;;;;-147.53;100.00;57128.34;10076723;29;20076;-86
2023/04/23 23:26:53;;;;;;;2.13;1.30;;;;;;;-147.53;100.00;57128.34;10087178;29;20057;-86
2023/04/23 23:31:59;;;;;;;2.58;1.27;;;;;;;-147.53;100.00;57128.34;10072763;29;20139;-85
2023/04/23 23:37:00;;;;;;;2.13;1.17;;;;;;;-147.53;100.00;57128.34;10083942;29;20466;-86
2023/04/23 23:42:02;;;;;;;1.67;1.05;;;;;;;-147.53;100.00;57128.34;10100630;29;20500;-85
2023/04/23 23:47:04;;;;;;;1.42;1.00;;;;;;;-147.53;100.00;57128.34;10110470;29;20053;-85
2023/04/23 23:52:10;;;;;;;1.33;0.90;;;;;;;-147.53;100.00;57128.34;10081100;29;20053;-85
2023/04/23 23:57:12;;;;;;;2.47;1.23;;;;;;;-147.53;100.00;57128.34;10090874;29;20045;-86
